sensor_id;sensor_type;location;lat;lon;timestamp;pressure;altitude;pressure_sealevel;temperature;humidity
6668;BME280;3370;47.712;9.082;2023-09-12T00:02:16;96747.13;;;18.98;92.72
6668;BME280;3370;47.712;9.082;2023-09-12T00:04:41;96750.34;;;18.90;93.14
6668;BME280;3370;47.712;9.082;2023-09-12T00:07:07;96747.06;;;18.88;93.77
6668;BME280;3370;47.712;9.082;2023-09-12T00:09:33;96748.97;;;18.86;93.88
6668;BME280;3370;47.712;9.082;2023-09-12T00:11:59;96748.53;;;18.81;94.16
6668;BME280;3370;47.712;9.082;2023-09-12T00:14:24;96741.78;;;18.78;94.14
6668;BME280;3370;47.712;9.082;2023-09-12T00:16:50;96738.72;;;18.73;94.64
6668;BME280;3370;47.712;9.082;2023-09-12T00:19:18;96733.50;;;18.73;94.58
6668;BME280;3370;47.712;9.082;2023-09-12T00:21:44;96742.16;;;18.74;94.12
6668;BME280;3370;47.712;9.082;2023-09-12T00:24:09;96727.69;;;18.81;93.36
6668;BME280;3370;47.712;9.082;2023-09-12T00:26:35;96734.56;;;18.71;94.16
6668;BME280;3370;47.712;9.082;2023-09-12T00:29:01;96730.13;;;18.62;94.84
6668;BME280;3370;47.712;9.082;2023-09-12T00:31:26;96730.91;;;18.52;95.93
6668;BME280;3370;47.712;9.082;2023-09-12T00:33:52;96732.81;;;18.50;96.29
6668;BME280;3370;47.712;9.082;2023-09-12T00:36:18;96733.78;;;18.49;96.21
6668;BME280;3370;47.712;9.082;2023-09-12T00:38:44;96732.81;;;18.50;96.17
6668;BME280;3370;47.712;9.082;2023-09-12T00:41:09;96730.44;;;18.47;96.57
6668;BME280;3370;47.712;9.082;2023-09-12T00:43:35;96734.72;;;18.48;97.12
6668;BME280;3370;47.712;9.082;2023-09-12T00:46:01;96724.28;;;18.48;97.04
6668;BME280;3370;47.712;9.082;2023-09-12T00:48:27;96734.72;;;18.48;97.18
6668;BME280;3370;47.712;9.082;2023-09-12T00:50:53;96735.28;;;18.52;97.19
6668;BME280;3370;47.712;9.082;2023-09-12T00:53:20;96726.91;;;18.48;97.45
6668;BME280;3370;47.712;9.082;2023-09-12T00:55:53;96728.56;;;18.49;97.40
6668;BME280;3370;47.712;9.082;2023-09-12T00:58:23;96731.66;;;18.43;97.41
6668;BME280;3370;47.712;9.082;2023-09-12T01:00:49;96742.63;;;18.47;96.76
6668;BME280;3370;47.712;9.082;2023-09-12T01:03:15;96738.53;;;18.44;96.74
6668;BME280;3370;47.712;9.082;2023-09-12T01:05:42;96744.22;;;18.38;97.06
6668;BME280;3370;47.712;9.082;2023-09-12T01:08:09;96744.47;;;18.35;97.70
6668;BME280;3370;47.712;9.082;2023-09-12T01:10:35;96734.88;;;18.35;97.71
6668;BME280;3370;47.712;9.082;2023-09-12T01:13:01;96739.28;;;18.35;97.27
6668;BME280;3370;47.712;9.082;2023-09-12T01:15:27;96731.84;;;18.30;97.59
6668;BME280;3370;47.712;9.082;2023-09-12T01:17:52;96739.28;;;18.35;96.97
6668;BME280;3370;47.712;9.082;2023-09-12T01:20:27;96733.16;;;18.25;98.02
6668;BME280;3370;47.712;9.082;2023-09-12T01:23:27;96730.31;;;18.28;97.94
6668;BME280;3370;47.712;9.082;2023-09-12T01:26:21;96736.47;;;18.27;97.81
6668;BME280;3370;47.712;9.082;2023-09-12T01:28:51;96736.00;;;18.22;98.42
6668;BME280;3370;47.712;9.082;2023-09-12T01:31:20;96737.44;;;18.14;98.96
6668;BME280;3370;47.712;9.082;2023-09-12T01:33:47;96735.41;;;18.18;99.12
6668;BME280;3370;47.712;9.082;2023-09-12T01:36:13;96732.34;;;18.24;97.43
6668;BME280;3370;47.712;9.082;2023-09-12T01:38:39;96744.06;;;18.18;97.95
6668;BME280;3370;47.712;9.082;2023-09-12T01:41:05;96740.16;;;18.13;98.68
6668;BME280;3370;47.712;9.082;2023-09-12T01:43:32;96733.50;;;17.99;99.51
6668;BME280;3370;47.712;9.082;2023-09-12T01:45:59;96740.31;;;18.00;99.61
6668;BME280;3370;47.712;9.082;2023-09-12T01:48:32;96737.50;;;18.03;98.47
6668;BME280;3370;47.712;9.082;2023-09-12T01:51:00;96738.94;;;17.96;98.81
6668;BME280;3370;47.712;9.082;2023-09-12T01:53:28;96740.31;;;18.00;98.59
6668;BME280;3370;47.712;9.082;2023-09-12T01:55:56;96750.03;;;17.98;98.04
6668;BME280;3370;47.712;9.082;2023-09-12T01:58:25;96747.94;;;17.92;98.46
6668;BME280;3370;47.712;9.082;2023-09-12T02:00:51;96751.00;;;17.74;100.00
6668;BME280;3370;47.712;9.082;2023-09-12T02:03:17;96755.72;;;17.69;100.00
6668;BME280;3370;47.712;9.082;2023-09-12T02:05:43;96757.50;;;17.69;100.00
6668;BME280;3370;47.712;9.082;2023-09-12T02:08:09;96760.00;;;17.70;100.00
6668;BME280;3370;47.712;9.082;2023-09-12T02:10:35;96756.94;;;17.65;100.00
6668;BME280;3370;47.712;9.082;2023-09-12T02:13:00;96760.22;;;17.67;100.00
6668;BME280;3370;47.712;9.082;2023-09-12T02:15:26;96756.81;;;17.67;100.00
6668;BME280;3370;47.712;9.082;2023-09-12T02:17:52;96752.44;;;17.67;100.00
6668;BME280;3370;47.712;9.082;2023-09-12T02:20:18;96756.94;;;17.65;100.00
6668;BME280;3370;47.712;9.082;2023-09-12T02:22:45;96765.44;;;17.67;100.00
6668;BME280;3370;47.712;9.082;2023-09-12T02:25:11;96758.72;;;17.65;100.00
6668;BME280;3370;47.712;9.082;2023-09-12T02:27:36;96761.31;;;17.65;100.00
6668;BME280;3370;47.712;9.082;2023-09-12T02:30:03;96758.13;;;17.61;100.00
6668;BME280;3370;47.712;9.082;2023-09-12T02:32:29;96763.31;;;17.61;100.00
6668;BME280;3370;47.712;9.082;2023-09-12T02:34:55;96759.75;;;17.62;100.00
6668;BME280;3370;47.712;9.082;2023-09-12T02:37:22;96766.63;;;17.52;100.00
6668;BME280;3370;47.712;9.082;2023-09-12T02:39:48;96759.53;;;17.54;100.00
6668;BME280;3370;47.712;9.082;2023-09-12T02:42:14;96765.56;;;17.54;100.00
6668;BME280;3370;47.712;9.082;2023-09-12T02:44:40;96765.44;;;17.56;100.00
6668;BME280;3370;47.712;9.082;2023-09-12T02:47:05;96768.28;;;17.53;100.00
6668;BME280;3370;47.712;9.082;2023-09-12T02:49:31;96765.56;;;17.54;100.00
6668;BME280;3370;47.712;9.082;2023-09-12T02:51:57;96759.31;;;17.57;100.00
6668;BME280;3370;47.712;9.082;2023-09-12T02:54:23;96755.53;;;17.61;100.00
6668;BME280;3370;47.712;9.082;2023-09-12T02:56:49;96753.38;;;17.66;100.00
6668;BME280;3370;47.712;9.082;2023-09-12T02:59:14;96760.00;;;17.70;100.00
6668;BME280;3370;47.712;9.082;2023-09-12T03:01:40;96760.00;;;17.70;100.00
6668;BME280;3370;47.712;9.082;2023-09-12T03:04:06;96756.56;;;17.58;100.00
6668;BME280;3370;47.712;9.082;2023-09-12T03:06:32;96759.06;;;17.60;100.00
6668;BME280;3370;47.712;9.082;2023-09-12T03:08:58;96752.81;;;17.62;100.00
6668;BME280;3370;47.712;9.082;2023-09-12T03:11:26;96757.16;;;17.62;100.00
6668;BME280;3370;47.712;9.082;2023-09-12T03:13:53;96751.13;;;17.61;100.00
6668;BME280;3370;47.712;9.082;2023-09-12T03:16:19;96744.75;;;17.54;100.00
6668;BME280;3370;47.712;9.082;2023-09-12T03:18:45;96747.47;;;17.53;100.00
6668;BME280;3370;47.712;9.082;2023-09-12T03:21:10;96751.75;;;17.42;100.00
6668;BME280;3370;47.712;9.082;2023-09-12T03:23:36;96745.47;;;17.56;100.00
6668;BME280;3370;47.712;9.082;2023-09-12T03:26:04;96744.28;;;17.49;100.00
6668;BME280;3370;47.712;9.082;2023-09-12T03:28:30;96746.09;;;17.37;100.00
6668;BME280;3370;47.712;9.082;2023-09-12T03:31:13;96746.09;;;17.26;100.00
6668;BME280;3370;47.712;9.082;2023-09-12T03:33:41;96752.09;;;17.27;100.00
6668;BME280;3370;47.712;9.082;2023-09-12T03:36:08;96751.53;;;17.23;100.00
6668;BME280;3370;47.712;9.082;2023-09-12T03:38:35;96754.81;;;17.25;100.00
6668;BME280;3370;47.712;9.082;2023-09-12T03:41:01;96749.84;;;17.22;100.00
6668;BME280;3370;47.712;9.082;2023-09-12T03:43:27;96744.78;;;17.20;100.00
6668;BME280;3370;47.712;9.082;2023-09-12T03:45:53;96740.88;;;17.15;100.00
6668;BME280;3370;47.712;9.082;2023-09-12T03:48:19;96747.03;;;17.14;100.00
6668;BME280;3370;47.712;9.082;2023-09-12T03:50:45;96741.13;;;17.12;100.00
6668;BME280;3370;47.712;9.082;2023-09-12T03:53:15;96745.38;;;17.13;100.00
6668;BME280;3370;47.712;9.082;2023-09-12T03:55:42;96750.06;;;17.08;100.00
6668;BME280;3370;47.712;9.082;2023-09-12T03:58:08;96749.97;;;17.09;100.00
6668;BME280;3370;47.712;9.082;2023-09-12T04:00:33;96754.94;;;17.12;100.00
6668;BME280;3370;47.712;9.082;2023-09-12T04:02:59;96752.94;;;17.16;100.00
6668;BME280;3370;47.712;9.082;2023-09-12T04:05:26;96748.22;;;17.10;100.00
6668;BME280;3370;47.712;9.082;2023-09-12T04:07:52;96753.84;;;17.15;100.00
6668;BME280;3370;47.712;9.082;2023-09-12T04:10:20;96753.41;;;17.21;100.00
6668;BME280;3370;47.712;9.082;2023-09-12T04:12:46;96752.22;;;17.14;100.00
6668;BME280;3370;47.712;9.082;2023-09-12T04:15:11;96753.16;;;17.01;100.00
6668;BME280;3370;47.712;9.082;2023-09-12T04:17:37;96756.59;;;17.13;100.00
6668;BME280;3370;47.712;9.082;2023-09-12T04:20:03;96762.84;;;17.11;100.00
6668;BME280;3370;47.712;9.082;2023-09-12T04:22:33;96750.56;;;17.01;100.00
6668;BME280;3370;47.712;9.082;2023-09-12T04:24:59;96754.44;;;16.96;100.00
6668;BME280;3370;47.712;9.082;2023-09-12T04:27:24;96754.06;;;16.89;100.00
6668;BME280;3370;47.712;9.082;2023-09-12T04:29:50;96752.44;;;16.88;100.00
6668;BME280;3370;47.712;9.082;2023-09-12T04:32:16;96753.03;;;16.92;100.00
6668;BME280;3370;47.712;9.082;2023-09-12T04:34:49;96753.38;;;16.98;100.00
6668;BME280;3370;47.712;9.082;2023-09-12T04:37:15;96760.72;;;16.93;100.00
6668;BME280;3370;47.712;9.082;2023-09-12T04:39:41;96753.97;;;16.91;100.00
6668;BME280;3370;47.712;9.082;2023-09-12T04:42:06;96751.47;;;16.89;100.00
6668;BME280;3370;47.712;9.082;2023-09-12T04:44:36;96752.34;;;17.01;100.00
6668;BME280;3370;47.712;9.082;2023-09-12T04:47:02;96751.72;;;16.97;100.00
6668;BME280;3370;47.712;9.082;2023-09-12T04:49:28;96756.19;;;16.84;100.00
6668;BME280;3370;47.712;9.082;2023-09-12T04:51:54;96754.94;;;16.77;100.00
6668;BME280;3370;47.712;9.082;2023-09-12T04:54:20;96756.34;;;16.70;100.00
6668;BME280;3370;47.712;9.082;2023-09-12T04:56:45;96753.66;;;16.71;100.00
6668;BME280;3370;47.712;9.082;2023-09-12T04:59:12;96757.19;;;16.70;100.00
6668;BME280;3370;47.712;9.082;2023-09-12T05:01:38;96760.88;;;16.79;100.00
6668;BME280;3370;47.712;9.082;2023-09-12T05:04:04;96762.13;;;16.86;100.00
6668;BME280;3370;47.712;9.082;2023-09-12T05:06:30;96757.31;;;16.80;100.00
6668;BME280;3370;47.712;9.082;2023-09-12T05:08:55;96756.19;;;16.84;100.00
6668;BME280;3370;47.712;9.082;2023-09-12T05:11:24;96763.03;;;16.85;100.00
6668;BME280;3370;47.712;9.082;2023-09-12T05:13:51;96759.78;;;16.70;100.00
6668;BME280;3370;47.712;9.082;2023-09-12T05:16:17;96758.59;;;16.63;100.00
6668;BME280;3370;47.712;9.082;2023-09-12T05:18:43;96767.47;;;16.72;100.00
6668;BME280;3370;47.712;9.082;2023-09-12T05:21:09;96763.44;;;16.67;100.00
6668;BME280;3370;47.712;9.082;2023-09-12T05:23:34;96760.63;;;16.71;100.00
6668;BME280;3370;47.712;9.082;2023-09-12T05:26:00;96767.19;;;16.63;100.00
6668;BME280;3370;47.712;9.082;2023-09-12T05:28:26;96772.75;;;16.59;100.00
6668;BME280;3370;47.712;9.082;2023-09-12T05:30:53;96773.56;;;16.59;100.00
6668;BME280;3370;47.712;9.082;2023-09-12T05:33:18;96778.19;;;16.67;100.00
6668;BME280;3370;47.712;9.082;2023-09-12T05:35:44;96775.00;;;16.75;100.00
6668;BME280;3370;47.712;9.082;2023-09-12T05:38:11;96784.25;;;16.79;100.00
6668;BME280;3370;47.712;9.082;2023-09-12T05:40:36;96781.50;;;16.80;100.00
6668;BME280;3370;47.712;9.082;2023-09-12T05:43:02;96791.50;;;16.86;100.00
6668;BME280;3370;47.712;9.082;2023-09-12T05:45:29;96789.38;;;16.92;100.00
6668;BME280;3370;47.712;9.082;2023-09-12T05:47:59;96785.72;;;16.94;100.00
6668;BME280;3370;47.712;9.082;2023-09-12T05:50:24;96782.66;;;17.00;100.00
6668;BME280;3370;47.712;9.082;2023-09-12T05:52:50;96785.50;;;17.09;100.00
6668;BME280;3370;47.712;9.082;2023-09-12T05:55:17;96784.09;;;17.16;100.00
6668;BME280;3370;47.712;9.082;2023-09-12T05:57:43;96784.94;;;17.28;100.00
6668;BME280;3370;47.712;9.082;2023-09-12T06:00:10;96795.91;;;17.31;100.00
6668;BME280;3370;47.712;9.082;2023-09-12T06:02:38;96787.19;;;17.32;100.00
6668;BME280;3370;47.712;9.082;2023-09-12T06:05:04;96789.78;;;17.32;100.00
6668;BME280;3370;47.712;9.082;2023-09-12T06:07:30;96801.25;;;17.41;100.00
6668;BME280;3370;47.712;9.082;2023-09-12T06:09:58;96797.47;;;17.45;100.00
6668;BME280;3370;47.712;9.082;2023-09-12T06:12:23;96797.94;;;17.50;100.00
6668;BME280;3370;47.712;9.082;2023-09-12T06:14:51;96801.84;;;17.56;100.00
6668;BME280;3370;47.712;9.082;2023-09-12T06:17:18;96799.13;;;17.57;100.00
6668;BME280;3370;47.712;9.082;2023-09-12T06:19:44;96794.63;;;17.59;100.00
6668;BME280;3370;47.712;9.082;2023-09-12T06:22:10;96800.19;;;17.66;100.00
6668;BME280;3370;47.712;9.082;2023-09-12T06:24:36;96800.78;;;17.70;100.00
6668;BME280;3370;47.712;9.082;2023-09-12T06:27:01;96800.19;;;17.77;100.00
6668;BME280;3370;47.712;9.082;2023-09-12T06:29:27;96803.25;;;17.82;100.00
6668;BME280;3370;47.712;9.082;2023-09-12T06:31:53;96807.28;;;17.87;100.00
6668;BME280;3370;47.712;9.082;2023-09-12T06:34:20;96801.84;;;17.90;100.00
6668;BME280;3370;47.712;9.082;2023-09-12T06:36:46;96803.25;;;17.94;100.00
6668;BME280;3370;47.712;9.082;2023-09-12T06:39:12;96803.03;;;17.97;100.00
6668;BME280;3370;47.712;9.082;2023-09-12T06:41:37;96799.47;;;17.98;100.00
6668;BME280;3370;47.712;9.082;2023-09-12T06:44:03;96802.28;;;18.06;100.00
6668;BME280;3370;47.712;9.082;2023-09-12T06:46:31;96793.66;;;18.06;100.00
6668;BME280;3370;47.712;9.082;2023-09-12T06:48:56;96795.66;;;18.13;100.00
6668;BME280;3370;47.712;9.082;2023-09-12T06:51:25;96797.88;;;18.18;100.00
6668;BME280;3370;47.712;9.082;2023-09-12T06:53:52;96800.59;;;18.28;100.00
6668;BME280;3370;47.712;9.082;2023-09-12T06:56:18;96801.75;;;18.35;100.00
6668;BME280;3370;47.712;9.082;2023-09-12T06:58:43;96798.19;;;18.36;100.00
6668;BME280;3370;47.712;9.082;2023-09-12T07:01:09;96801.75;;;18.35;100.00
6668;BME280;3370;47.712;9.082;2023-09-12T07:03:36;96800.41;;;18.41;100.00
6668;BME280;3370;47.712;9.082;2023-09-12T07:06:02;96809.75;;;18.43;100.00
6668;BME280;3370;47.712;9.082;2023-09-12T07:08:32;96804.31;;;18.46;100.00
6668;BME280;3370;47.712;9.082;2023-09-12T07:10:58;96812.56;;;18.51;100.00
6668;BME280;3370;47.712;9.082;2023-09-12T07:13:31;96816.44;;;18.57;100.00
6668;BME280;3370;47.712;9.082;2023-09-12T07:15:58;96809.16;;;18.72;100.00
6668;BME280;3370;47.712;9.082;2023-09-12T07:18:23;96817.38;;;18.67;100.00
6668;BME280;3370;47.712;9.082;2023-09-12T07:21:05;96816.53;;;18.67;100.00
6668;BME280;3370;47.712;9.082;2023-09-12T07:23:32;96811.06;;;18.70;100.00
6668;BME280;3370;47.712;9.082;2023-09-12T07:25:58;96808.91;;;18.75;100.00
6668;BME280;3370;47.712;9.082;2023-09-12T07:28:25;96811.75;;;18.83;100.00
6668;BME280;3370;47.712;9.082;2023-09-12T07:30:51;96810.97;;;18.92;100.00
6668;BME280;3370;47.712;9.082;2023-09-12T07:33:17;96807.44;;;18.93;100.00
6668;BME280;3370;47.712;9.082;2023-09-12T07:35:42;96808.81;;;18.98;100.00
6668;BME280;3370;47.712;9.082;2023-09-12T07:38:08;96817.84;;;19.14;100.00
6668;BME280;3370;47.712;9.082;2023-09-12T07:40:34;96816.75;;;19.17;100.00
6668;BME280;3370;47.712;9.082;2023-09-12T07:43:00;96821.03;;;19.18;100.00
6668;BME280;3370;47.712;9.082;2023-09-12T07:45:27;96827.88;;;19.19;100.00
6668;BME280;3370;47.712;9.082;2023-09-12T07:47:53;96822.88;;;19.27;100.00
6668;BME280;3370;47.712;9.082;2023-09-12T07:50:19;96824.25;;;19.31;100.00
6668;BME280;3370;47.712;9.082;2023-09-12T07:52:44;96817.56;;;19.39;100.00
6668;BME280;3370;47.712;9.082;2023-09-12T07:55:10;96821.13;;;19.38;100.00
6668;BME280;3370;47.712;9.082;2023-09-12T07:57:36;96820.88;;;19.41;100.00
6668;BME280;3370;47.712;9.082;2023-09-12T08:00:04;96827.41;;;19.56;100.00
6668;BME280;3370;47.712;9.082;2023-09-12T08:02:35;96827.25;;;19.58;100.00
6668;BME280;3370;47.712;9.082;2023-09-12T08:05:01;96829.38;;;19.43;100.00
6668;BME280;3370;47.712;9.082;2023-09-12T08:07:26;96818.38;;;19.70;100.00
6668;BME280;3370;47.712;9.082;2023-09-12T08:09:55;96833.72;;;19.94;100.00
6668;BME280;3370;47.712;9.082;2023-09-12T08:12:24;96831.41;;;19.91;100.00
6668;BME280;3370;47.712;9.082;2023-09-12T08:14:50;96829.88;;;19.88;100.00
6668;BME280;3370;47.712;9.082;2023-09-12T08:17:16;96834.44;;;19.96;100.00
6668;BME280;3370;47.712;9.082;2023-09-12T08:19:42;96837.19;;;20.04;100.00
6668;BME280;3370;47.712;9.082;2023-09-12T08:22:10;96836.25;;;20.05;100.00
6668;BME280;3370;47.712;9.082;2023-09-12T08:24:37;96840.38;;;20.18;100.00
6668;BME280;3370;47.712;9.082;2023-09-12T08:27:04;96827.75;;;20.23;100.00
6668;BME280;3370;47.712;9.082;2023-09-12T08:29:30;96831.34;;;20.22;100.00
6668;BME280;3370;47.712;9.082;2023-09-12T08:31:56;96837.56;;;20.40;100.00
6668;BME280;3370;47.712;9.082;2023-09-12T08:34:22;96829.47;;;20.43;100.00
6668;BME280;3370;47.712;9.082;2023-09-12T08:36:48;96824.47;;;20.21;100.00
6668;BME280;3370;47.712;9.082;2023-09-12T08:39:24;96821.16;;;20.28;100.00
6668;BME280;3370;47.712;9.082;2023-09-12T08:41:51;96824.50;;;20.30;100.00
6668;BME280;3370;47.712;9.082;2023-09-12T08:44:18;96827.53;;;20.55;100.00
6668;BME280;3370;47.712;9.082;2023-09-12T08:46:44;96830.03;;;20.76;100.00
6668;BME280;3370;47.712;9.082;2023-09-12T08:49:11;96826.59;;;20.85;100.00
6668;BME280;3370;47.712;9.082;2023-09-12T08:51:38;96818.63;;;20.87;100.00
6668;BME280;3370;47.712;9.082;2023-09-12T08:54:05;96823.13;;;21.04;100.00
6668;BME280;3370;47.712;9.082;2023-09-12T08:56:33;96813.22;;;21.18;100.00
6668;BME280;3370;47.712;9.082;2023-09-12T08:59:01;96822.28;;;21.23;100.00
6668;BME280;3370;47.712;9.082;2023-09-12T09:01:31;96826.53;;;21.34;97.24
6668;BME280;3370;47.712;9.082;2023-09-12T09:03:57;96828.00;;;21.37;99.62
6668;BME280;3370;47.712;9.082;2023-09-12T09:06:23;96823.38;;;21.31;98.08
6668;BME280;3370;47.712;9.082;2023-09-12T09:08:51;96817.41;;;21.38;96.37
6668;BME280;3370;47.712;9.082;2023-09-12T09:11:17;96814.25;;;21.35;99.24
6668;BME280;3370;47.712;9.082;2023-09-12T09:13:43;96816.44;;;21.49;96.32
6668;BME280;3370;47.712;9.082;2023-09-12T09:16:16;96814.13;;;21.46;95.76
6668;BME280;3370;47.712;9.082;2023-09-12T09:19:03;96805.56;;;21.44;94.64
6668;BME280;3370;47.712;9.082;2023-09-12T09:21:32;96800.16;;;21.55;99.32
6668;BME280;3370;47.712;9.082;2023-09-12T09:24:04;96793.59;;;21.79;98.21
6668;BME280;3370;47.712;9.082;2023-09-12T09:29:19;96795.38;;;22.06;96.71
6668;BME280;3370;47.712;9.082;2023-09-12T09:31:48;96788.97;;;22.46;95.15
6668;BME280;3370;47.712;9.082;2023-09-12T09:34:17;96783.09;;;22.52;94.29
6668;BME280;3370;47.712;9.082;2023-09-12T09:36:55;96775.22;;;22.70;91.29
6668;BME280;3370;47.712;9.082;2023-09-12T09:39:28;96781.94;;;22.91;91.82
6668;BME280;3370;47.712;9.082;2023-09-12T09:41:57;96786.06;;;22.93;91.74
6668;BME280;3370;47.712;9.082;2023-09-12T09:44:25;96784.78;;;22.97;89.03
6668;BME280;3370;47.712;9.082;2023-09-12T09:47:00;96780.19;;;22.73;90.26
6668;BME280;3370;47.712;9.082;2023-09-12T09:49:28;96781.19;;;22.81;90.76
6668;BME280;3370;47.712;9.082;2023-09-12T09:51:56;96773.19;;;22.82;91.25
6668;BME280;3370;47.712;9.082;2023-09-12T09:54:25;96769.38;;;22.76;91.63
6668;BME280;3370;47.712;9.082;2023-09-12T09:56:56;96771.03;;;22.77;90.16
6668;BME280;3370;47.712;9.082;2023-09-12T09:59:24;96773.91;;;22.92;89.97
6668;BME280;3370;47.712;9.082;2023-09-12T10:01:58;96767.00;;;23.09;89.60
6668;BME280;3370;47.712;9.082;2023-09-12T10:04:27;96764.16;;;23.03;89.22
6668;BME280;3370;47.712;9.082;2023-09-12T10:06:56;96763.88;;;23.32;89.95
6668;BME280;3370;47.712;9.082;2023-09-12T10:09:25;96763.56;;;23.35;86.01
6668;BME280;3370;47.712;9.082;2023-09-12T10:11:51;96766.50;;;23.32;89.28
6668;BME280;3370;47.712;9.082;2023-09-12T10:14:20;96763.13;;;23.48;86.20
6668;BME280;3370;47.712;9.082;2023-09-12T10:16:48;96770.41;;;23.62;87.57
6668;BME280;3370;47.712;9.082;2023-09-12T10:19:25;96766.66;;;23.73;85.64
6668;BME280;3370;47.712;9.082;2023-09-12T10:22:46;96765.13;;;23.88;85.58
6668;BME280;3370;47.712;9.082;2023-09-12T10:25:03;96762.84;;;24.02;82.44
6668;BME280;3370;47.712;9.082;2023-09-12T10:27:31;96755.00;;;24.18;81.52
6668;BME280;3370;47.712;9.082;2023-09-12T10:29:58;96753.84;;;24.13;82.53
6668;BME280;3370;47.712;9.082;2023-09-12T10:32:27;96747.44;;;24.07;84.02
6668;BME280;3370;47.712;9.082;2023-09-12T10:34:58;96751.72;;;24.33;85.69
6668;BME280;3370;47.712;9.082;2023-09-12T10:37:26;96749.13;;;24.41;81.82
6668;BME280;3370;47.712;9.082;2023-09-12T10:39:53;96757.66;;;24.43;81.37
6668;BME280;3370;47.712;9.082;2023-09-12T10:42:20;96748.50;;;24.55;83.69
6668;BME280;3370;47.712;9.082;2023-09-12T10:44:47;96740.75;;;24.86;82.46
6668;BME280;3370;47.712;9.082;2023-09-12T10:47:14;96745.66;;;24.98;78.65
6668;BME280;3370;47.712;9.082;2023-09-12T10:49:43;96735.59;;;25.18;78.33
6668;BME280;3370;47.712;9.082;2023-09-12T10:52:09;96740.38;;;25.14;75.70
6668;BME280;3370;47.712;9.082;2023-09-12T10:54:40;96741.50;;;25.36;74.41
6668;BME280;3370;47.712;9.082;2023-09-12T10:57:10;96743.78;;;25.48;74.19
6668;BME280;3370;47.712;9.082;2023-09-12T11:02:40;96729.97;;;25.77;75.01
6668;BME280;3370;47.712;9.082;2023-09-12T11:08:01;96724.19;;;26.36;72.66
6668;BME280;3370;47.712;9.082;2023-09-12T11:10:29;96732.31;;;26.34;70.32
6668;BME280;3370;47.712;9.082;2023-09-12T11:12:58;96723.72;;;26.32;71.36
6668;BME280;3370;47.712;9.082;2023-09-12T11:15:28;96725.97;;;26.20;70.21
6668;BME280;3370;47.712;9.082;2023-09-12T11:18:02;96727.00;;;26.57;68.88
6668;BME280;3370;47.712;9.082;2023-09-12T11:23:16;96716.41;;;26.66;69.85
6668;BME280;3370;47.712;9.082;2023-09-12T11:25:43;96706.63;;;27.19;68.11
6668;BME280;3370;47.712;9.082;2023-09-12T11:28:09;96699.53;;;27.64;65.96
6668;BME280;3370;47.712;9.082;2023-09-12T11:30:34;96698.84;;;28.35;64.18
6668;BME280;3370;47.712;9.082;2023-09-12T11:33:04;96701.47;;;28.78;63.05
6668;BME280;3370;47.712;9.082;2023-09-12T11:35:37;96694.88;;;28.67;61.14
6668;BME280;3370;47.712;9.082;2023-09-12T11:38:03;96692.44;;;28.44;62.59
6668;BME280;3370;47.712;9.082;2023-09-12T11:43:01;96684.19;;;29.11;60.95
6668;BME280;3370;47.712;9.082;2023-09-12T11:45:27;96689.59;;;28.96;58.73
6668;BME280;3370;47.712;9.082;2023-09-12T11:47:54;96689.47;;;29.11;59.48
6668;BME280;3370;47.712;9.082;2023-09-12T11:50:27;96682.88;;;29.28;58.59
6668;BME280;3370;47.712;9.082;2023-09-12T11:53:04;96679.22;;;29.29;59.95
6668;BME280;3370;47.712;9.082;2023-09-12T11:55:48;96678.09;;;28.82;59.04
6668;BME280;3370;47.712;9.082;2023-09-12T11:58:17;96676.81;;;28.49;59.95
6668;BME280;3370;47.712;9.082;2023-09-12T12:00:50;96671.06;;;28.61;60.37
6668;BME280;3370;47.712;9.082;2023-09-12T12:03:18;96674.34;;;28.70;58.75
6668;BME280;3370;47.712;9.082;2023-09-12T12:05:45;96668.06;;;29.05;59.79
6668;BME280;3370;47.712;9.082;2023-09-12T12:08:12;96675.97;;;29.34;57.77
6668;BME280;3370;47.712;9.082;2023-09-12T12:10:38;96667.84;;;29.42;54.76
6668;BME280;3370;47.712;9.082;2023-09-12T12:13:06;96663.47;;;28.86;57.90
6668;BME280;3370;47.712;9.082;2023-09-12T12:15:36;96661.94;;;30.01;53.41
6668;BME280;3370;47.712;9.082;2023-09-12T12:18:02;96652.41;;;30.54;54.56
6668;BME280;3370;47.712;9.082;2023-09-12T12:20:28;96650.53;;;30.88;53.43
6668;BME280;3370;47.712;9.082;2023-09-12T12:22:56;96650.59;;;31.40;53.70
6668;BME280;3370;47.712;9.082;2023-09-12T12:25:22;96651.66;;;31.32;52.32
6668;BME280;3370;47.712;9.082;2023-09-12T12:27:48;96643.19;;;30.96;50.08
6668;BME280;3370;47.712;9.082;2023-09-12T12:30:14;96645.88;;;30.70;50.52
6668;BME280;3370;47.712;9.082;2023-09-12T12:32:41;96649.53;;;30.75;52.23
6668;BME280;3370;47.712;9.082;2023-09-12T12:35:09;96643.00;;;30.58;55.10
6668;BME280;3370;47.712;9.082;2023-09-12T12:37:36;96642.22;;;31.49;52.35
6668;BME280;3370;47.712;9.082;2023-09-12T12:40:03;96641.91;;;31.71;49.81
6668;BME280;3370;47.712;9.082;2023-09-12T12:42:35;96644.06;;;31.87;49.73
6668;BME280;3370;47.712;9.082;2023-09-12T12:45:01;96634.22;;;31.88;49.65
6668;BME280;3370;47.712;9.082;2023-09-12T12:47:27;96643.75;;;32.09;48.11
6668;BME280;3370;47.712;9.082;2023-09-12T12:49:54;96638.03;;;32.31;47.67
6668;BME280;3370;47.712;9.082;2023-09-12T12:52:24;96624.72;;;32.31;46.35
6668;BME280;3370;47.712;9.082;2023-09-12T12:54:53;96630.34;;;32.22;47.73
6668;BME280;3370;47.712;9.082;2023-09-12T12:57:20;96625.94;;;32.35;47.14
6668;BME280;3370;47.712;9.082;2023-09-12T12:59:48;96623.22;;;32.85;45.88
6668;BME280;3370;47.712;9.082;2023-09-12T13:02:15;96623.72;;;33.19;44.77
6668;BME280;3370;47.712;9.082;2023-09-12T13:04:40;96617.53;;;33.37;45.18
6668;BME280;3370;47.712;9.082;2023-09-12T13:07:06;96620.16;;;33.55;42.24
6668;BME280;3370;47.712;9.082;2023-09-12T13:09:32;96617.47;;;33.43;41.49
6668;BME280;3370;47.712;9.082;2023-09-12T13:11:59;96615.38;;;33.46;40.76
6668;BME280;3370;47.712;9.082;2023-09-12T13:14:25;96612.88;;;33.51;38.69
6668;BME280;3370;47.712;9.082;2023-09-12T13:16:58;96606.66;;;33.38;39.54
6668;BME280;3370;47.712;9.082;2023-09-12T13:19:27;96599.13;;;33.35;40.47
6668;BME280;3370;47.712;9.082;2023-09-12T13:21:53;96606.41;;;33.58;41.96
6668;BME280;3370;47.712;9.082;2023-09-12T13:24:19;96602.00;;;33.64;39.70
6668;BME280;3370;47.712;9.082;2023-09-12T13:26:45;96605.38;;;33.41;41.59
6668;BME280;3370;47.712;9.082;2023-09-12T13:29:10;96606.31;;;32.54;39.63
6668;BME280;3370;47.712;9.082;2023-09-12T13:31:36;96609.25;;;31.64;39.94